Time;durP1;ratioP1;P1;durP2;ratioP2;P2;SDS_P1;SDS_P2;PMS_P1;PMS_P2;Temp;Humidity;BMP_temperature;BMP_pressure;BME280_temperature;BME280_humidity;BME280_pressure;Samples;Min_cycle;Max_cycle;Signal;HPM_P1;HPM_P2
2023/04/06 06:07:21;;;;;;;33.53;5.40;;;13.70;55.50;;;;;;5206877;23;20084;-70
2023/04/06 06:09:46;;;;;;;28.70;5.03;;;13.70;54.90;;;;;;4899862;29;20084;-70
2023/04/06 06:12:12;;;;;;;35.45;5.75;;;13.80;55.00;;;;;;4899534;29;20064;-71
2023/04/06 06:14:38;;;;;;;38.50;6.40;;;13.90;55.10;;;;;;4900422;29;20060;-70
2023/04/06 06:17:03;;;;;;;34.92;5.75;;;13.90;55.70;;;;;;4900012;29;20356;-75
2023/04/06 06:19:29;;;;;;;32.45;6.43;;;14.00;55.20;;;;;;4899300;29;20116;-72
2023/04/06 06:21:55;;;;;;;33.38;6.00;;;14.00;54.90;;;;;;4899890;29;20486;-72
2023/04/06 06:24:21;;;;;;;30.20;6.05;;;14.10;54.20;;;;;;4900172;29;20056;-71
2023/04/06 06:26:48;;;;;;;21.70;5.00;;;14.20;53.80;;;;;;4899898;29;20140;-72
2023/04/06 06:29:14;;;;;;;24.88;6.22;;;14.20;53.70;;;;;;4900426;29;20359;-72
2023/04/06 06:31:40;;;;;;;26.88;4.85;;;14.20;53.60;;;;;;4900096;29;20065;-72
2023/04/06 06:34:06;;;;;;;20.45;4.43;;;14.20;53.50;;;;;;4900079;29;20388;-73
2023/04/06 06:36:32;;;;;;;23.30;4.82;;;14.20;53.40;;;;;;4899814;29;20056;-72
2023/04/06 06:38:59;;;;;;;27.83;5.15;;;14.10;53.30;;;;;;4886872;29;20036;-72
2023/04/06 06:41:25;;;;;;;27.52;4.38;;;14.10;53.40;;;;;;4896772;29;20487;-73
2023/04/06 06:43:51;;;;;;;19.52;4.35;;;14.00;53.40;;;;;;4889363;29;20140;-73
2023/04/06 06:46:17;;;;;;;17.80;4.68;;;14.00;53.40;;;;;;4898431;29;20100;-74
2023/04/06 06:48:43;;;;;;;21.05;4.55;;;14.00;53.50;;;;;;4884121;29;20075;-74
2023/04/06 06:51:09;;;;;;;15.07;3.67;;;14.00;53.60;;;;;;4883528;29;20133;-78
2023/04/06 06:53:35;;;;;;;16.15;3.75;;;13.90;53.60;;;;;;4899651;29;20060;-72
2023/04/06 06:56:01;;;;;;;19.13;4.25;;;13.90;53.50;;;;;;4880035;29;20060;-72
2023/04/06 06:58:26;;;;;;;17.58;4.80;;;13.80;53.50;;;;;;4895762;29;20056;-71
2023/04/06 07:00:59;;;;;;;21.50;4.32;;;13.80;53.60;;;;;;4893438;29;20092;-73
2023/04/06 07:03:25;;;;;;;30.35;4.97;;;13.80;53.60;;;;;;4896160;29;20052;-72
2023/04/06 07:05:54;;;;;;;26.65;4.30;;;13.80;53.70;;;;;;4897079;29;20048;-73
2023/04/06 07:08:21;;;;;;;27.08;4.82;;;13.80;53.70;;;;;;4895555;29;20061;-73
2023/04/06 07:10:47;;;;;;;19.70;4.22;;;13.90;53.70;;;;;;4896739;29;20375;-72
2023/04/06 07:13:18;;;;;;;26.48;4.72;;;14.10;53.60;;;;;;4902874;29;20087;-73
2023/04/06 07:15:44;;;;;;;23.27;3.88;;;14.10;53.40;;;;;;4903023;29;20104;-73
2023/04/06 07:18:11;;;;;;;28.17;5.03;;;14.20;53.40;;;;;;4902519;29;20055;-75
2023/04/06 07:20:37;;;;;;;27.90;4.70;;;14.30;53.50;;;;;;4896903;29;20044;-74
2023/04/06 07:23:03;;;;;;;20.65;4.00;;;14.30;53.50;;;;;;4890200;29;20359;-74
2023/04/06 07:25:29;;;;;;;24.52;4.05;;;14.40;53.80;;;;;;4903063;29;20196;-71
2023/04/06 07:27:56;;;;;;;20.42;4.28;;;14.50;53.90;;;;;;4890944;29;20463;-73
2023/04/06 07:30:22;;;;;;;21.35;4.40;;;14.50;54.30;;;;;;4902254;29;20052;-75
2023/04/06 07:32:48;;;;;;;25.05;4.03;;;14.50;54.80;;;;;;4901690;29;20053;-74
2023/04/06 07:35:15;;;;;;;22.33;4.75;;;14.50;54.60;;;;;;4901650;29;20511;-72
2023/04/06 07:37:42;;;;;;;16.67;3.90;;;14.60;54.20;;;;;;4895808;29;20075;-77
2023/04/06 07:40:08;;;;;;;24.38;4.95;;;14.70;54.10;;;;;;4899826;29;20048;-73
2023/04/06 07:42:34;;;;;;;22.95;4.72;;;14.80;54.60;;;;;;4902562;29;20120;-73
2023/04/06 07:45:00;;;;;;;31.85;4.60;;;14.80;53.80;;;;;;4885503;29;20080;-76
2023/04/06 07:47:25;;;;;;;21.95;4.35;;;14.80;53.90;;;;;;4885035;29;20139;-75
2023/04/06 07:49:51;;;;;;;20.08;4.85;;;14.70;54.10;;;;;;4901821;29;20045;-76
2023/04/06 07:52:17;;;;;;;14.98;3.45;;;14.70;54.10;;;;;;4901926;29;20060;-73
2023/04/06 07:54:43;;;;;;;19.70;4.50;;;14.70;54.10;;;;;;4901288;29;20052;-76
2023/04/06 07:57:08;;;;;;;16.30;4.35;;;14.70;54.40;;;;;;4901619;29;20056;-76
2023/04/06 07:59:34;;;;;;;21.25;4.05;;;14.60;54.70;;;;;;4884955;29;20086;-75
2023/04/06 08:02:00;;;;;;;19.70;4.35;;;14.60;54.50;;;;;;4905439;29;20416;-74
2023/04/06 08:04:26;;;;;;;16.83;3.88;;;14.60;54.60;;;;;;4901163;29;20064;-73
2023/04/06 08:06:52;;;;;;;11.88;3.30;;;14.50;54.60;;;;;;4901288;29;20048;-72
2023/04/06 08:09:17;;;;;;;14.38;3.22;;;14.50;54.80;;;;;;4900195;29;20052;-74
2023/04/06 08:11:45;;;;;;;12.77;3.70;;;14.50;54.90;;;;;;4898499;29;20040;-75
2023/04/06 08:14:12;;;;;;;11.07;3.13;;;14.40;54.70;;;;;;4900549;29;20052;-77
2023/04/06 08:16:40;;;;;;;12.75;3.28;;;14.40;54.60;;;;;;4900526;29;20068;-75
2023/04/06 08:19:09;;;;;;;9.80;3.58;;;14.40;54.70;;;;;;4900428;29;20466;-74
2023/04/06 08:21:35;;;;;;;18.92;4.35;;;14.30;54.90;;;;;;4900245;29;20048;-73
2023/04/06 08:24:01;;;;;;;15.93;3.47;;;14.30;55.40;;;;;;4900672;29;20036;-74
2023/04/06 08:26:27;;;;;;;13.65;3.47;;;14.30;55.40;;;;;;4900828;29;20048;-78
2023/04/06 08:28:53;;;;;;;9.35;3.78;;;14.30;55.10;;;;;;4900376;29;20082;-71
2023/04/06 08:31:19;;;;;;;10.98;3.30;;;14.20;55.30;;;;;;4901772;29;20123;-73
2023/04/06 08:33:45;;;;;;;17.13;3.80;;;14.20;55.80;;;;;;4901695;29;20468;-74
2023/04/06 08:36:13;;;;;;;10.25;2.92;;;14.20;55.70;;;;;;4901937;29;20128;-74
2023/04/06 08:38:40;;;;;;;16.17;3.78;;;14.20;56.00;;;;;;4901645;29;20364;-73
2023/04/06 08:41:14;;;;;;;17.63;3.92;;;14.20;56.00;;;;;;4900006;29;20063;-75
2023/04/06 08:43:47;;;;;;;20.17;3.47;;;14.20;56.20;;;;;;4883289;29;20415;-73
2023/04/06 08:46:14;;;;;;;17.58;3.53;;;14.10;56.00;;;;;;4900666;29;20044;-74
2023/04/06 08:48:41;;;;;;;20.63;4.15;;;14.10;55.90;;;;;;4901024;29;20048;-79
2023/04/06 08:51:09;;;;;;;10.23;3.85;;;14.00;56.00;;;;;;4900639;29;20060;-77
2023/04/06 08:53:36;;;;;;;16.02;3.88;;;14.00;56.50;;;;;;4897523;29;20131;-76
2023/04/06 08:56:03;;;;;;;13.57;3.20;;;14.00;56.80;;;;;;4900448;29;20503;-75
2023/04/06 08:58:36;;;;;;;10.30;3.20;;;14.00;57.10;;;;;;4900662;29;20045;-73
2023/04/06 09:01:08;;;;;;;14.07;3.30;;;14.00;56.90;;;;;;4900122;29;20148;-74
2023/04/06 09:03:37;;;;;;;9.82;3.30;;;14.00;56.90;;;;;;4900435;29;20045;-72
2023/04/06 09:06:04;;;;;;;11.23;2.80;;;14.00;57.20;;;;;;4900875;29;20444;-73
2023/04/06 09:08:30;;;;;;;14.82;3.20;;;13.90;57.30;;;;;;4901210;29;20155;-74
2023/04/06 09:10:55;;;;;;;18.35;3.53;;;13.90;57.30;;;;;;4900469;29;20469;-80
2023/04/06 09:13:21;;;;;;;13.82;4.35;;;14.00;57.30;;;;;;4884648;29;20072;-79
2023/04/06 09:15:57;;;;;;;17.13;3.55;;;14.00;57.00;;;;;;4900800;29;20060;-79
2023/04/06 09:18:34;;;;;;;16.65;4.25;;;13.90;56.70;;;;;;4885265;29;20052;-74
2023/04/06 09:21:02;;;;;;;14.38;5.18;;;14.00;56.60;;;;;;4900945;29;20045;-77
2023/04/06 09:23:28;;;;;;;20.95;5.95;;;14.00;56.20;;;;;;4900850;29;20124;-74
2023/04/06 09:26:14;;;;;;;18.77;6.97;;;13.90;55.50;;;;;;4901068;29;20052;-71
2023/04/06 09:28:44;;;;;;;9.60;6.57;;;13.90;54.60;;;;;;4901036;29;20136;-76
2023/04/06 09:31:10;;;;;;;10.68;6.85;;;14.00;54.40;;;;;;4885010;29;20049;-75
2023/04/06 09:33:41;;;;;;;14.50;8.43;;;14.00;54.10;;;;;;4900673;29;20541;-75
2023/04/06 09:36:09;;;;;;;12.93;7.28;;;14.00;53.60;;;;;;4900764;29;20104;-76
2023/04/06 09:38:50;;;;;;;16.08;8.23;;;13.90;53.20;;;;;;4900506;29;20087;-75
2023/04/06 09:41:22;;;;;;;18.85;10.32;;;13.90;52.80;;;;;;4884563;29;20060;-75
2023/04/06 09:43:49;;;;;;;19.83;9.75;;;13.90;52.50;;;;;;4898994;29;20059;-72
2023/04/06 09:46:15;;;;;;;19.17;9.32;;;13.90;52.40;;;;;;4900343;29;20088;-79
2023/04/06 09:48:42;;;;;;;23.27;9.35;;;13.90;52.50;;;;;;4900756;29;20052;-79
2023/04/06 09:51:10;;;;;;;20.65;8.60;;;13.90;52.60;;;;;;4900399;29;20123;-80
2023/04/06 09:53:39;;;;;;;17.52;8.57;;;13.80;52.70;;;;;;4900210;29;20054;-78
2023/04/06 09:56:10;;;;;;;21.35;9.25;;;13.90;52.90;;;;;;4899919;29;20191;-81
2023/04/06 09:58:39;;;;;;;20.23;9.07;;;13.80;53.00;;;;;;4899868;29;20048;-80
2023/04/06 10:01:15;;;;;;;18.67;8.93;;;13.80;53.10;;;;;;4883704;29;20132;-82
2023/04/06 10:04:17;;;;;;;16.40;8.38;;;13.80;53.20;;;;;;4899727;29;20115;-78
2023/04/06 10:06:47;;;;;;;18.27;8.05;;;13.80;53.40;;;;;;4884065;29;20053;-78
2023/04/06 10:09:14;;;;;;;15.13;8.85;;;13.80;53.50;;;;;;4898971;29;20391;-78
2023/04/06 10:11:41;;;;;;;16.95;7.95;;;13.80;53.50;;;;;;4899718;29;20051;-79
2023/04/06 10:14:11;;;;;;;13.65;8.35;;;13.80;53.60;;;;;;4883252;29;20101;-81
2023/04/06 10:16:37;;;;;;;20.25;8.70;;;13.80;53.60;;;;;;4899852;29;20053;-78
2023/04/06 10:19:13;;;;;;;27.40;9.35;;;13.80;53.50;;;;;;4883203;29;20055;-78
2023/04/06 10:21:41;;;;;;;24.92;9.57;;;13.80;53.80;;;;;;4899688;29;20080;-76
2023/04/06 10:24:12;;;;;;;17.10;8.13;;;13.80;53.90;;;;;;4899982;29;20067;-75
2023/04/06 10:26:38;;;;;;;24.58;8.45;;;13.80;54.00;;;;;;4899685;29;20040;-77
2023/04/06 10:29:05;;;;;;;16.52;7.65;;;13.80;54.40;;;;;;4882856;29;20048;-75
2023/04/06 10:31:31;;;;;;;24.60;8.90;;;13.80;54.70;;;;;;4900169;29;20040;-76
2023/04/06 10:34:01;;;;;;;24.95;9.98;;;13.80;55.30;;;;;;4883426;29;20383;-78
2023/04/06 10:36:31;;;;;;;28.52;11.52;;;13.90;56.50;;;;;;4899584;29;20495;-73
2023/04/06 10:39:02;;;;;;;24.85;10.77;;;13.90;57.10;;;;;;4899869;29;20048;-71
2023/04/06 10:42:05;;;;;;;23.48;13.75;;;13.90;58.10;;;;;;4883454;29;20375;-72
2023/04/06 10:44:43;;;;;;;24.70;10.82;;;14.00;58.00;;;;;;4899000;29;20456;-75
2023/04/06 10:47:17;;;;;;;37.85;11.88;;;14.10;57.90;;;;;;4903471;29;20051;-72
2023/04/06 10:49:43;;;;;;;44.50;11.77;;;14.20;58.20;;;;;;4903162;29;20045;-72
2023/04/06 10:52:09;;;;;;;22.92;10.10;;;14.30;58.10;;;;;;4902653;29;20047;-72
2023/04/06 10:54:41;;;;;;;33.33;11.25;;;14.40;58.10;;;;;;4902771;29;20108;-73
2023/04/06 10:57:07;;;;;;;37.45;10.98;;;14.50;58.10;;;;;;4900687;29;20063;-74
2023/04/06 10:59:33;;;;;;;28.95;10.82;;;14.50;57.90;;;;;;4903508;29;20053;-75
2023/04/06 11:01:58;;;;;;;34.85;11.35;;;14.60;58.10;;;;;;4903807;29;20056;-74
2023/04/06 11:04:25;;;;;;;35.92;11.15;;;14.60;58.40;;;;;;4902993;29;20044;-73
2023/04/06 11:06:50;;;;;;;37.97;11.45;;;14.70;58.90;;;;;;4903078;29;20128;-73
2023/04/06 11:09:31;;;;;;;32.00;11.52;;;14.70;59.10;;;;;;4903575;29;20148;-74
2023/04/06 11:11:57;;;;;;;30.63;10.27;;;14.70;59.50;;;;;;4903160;29;20053;-73
2023/04/06 11:14:23;;;;;;;31.27;10.13;;;14.80;59.80;;;;;;4903211;29;20447;-73
2023/04/06 11:16:51;;;;;;;27.02;9.32;;;14.80;60.20;;;;;;4902386;29;20045;-74
2023/04/06 11:19:18;;;;;;;33.95;10.32;;;14.80;60.40;;;;;;4902963;29;20090;-73
2023/04/06 11:21:47;;;;;;;34.60;9.43;;;14.80;60.60;;;;;;4902831;29;20527;-73
2023/04/06 11:24:14;;;;;;;29.40;9.55;;;14.90;60.80;;;;;;4902984;29;20049;-74
2023/04/06 11:26:45;;;;;;;35.70;9.77;;;14.90;60.50;;;;;;4902957;29;20087;-74
2023/04/06 11:29:12;;;;;;;43.50;9.88;;;14.90;60.70;;;;;;4902521;29;20103;-72
2023/04/06 11:31:48;;;;;;;36.80;9.80;;;14.90;60.50;;;;;;4903044;29;20044;-76
2023/04/06 11:34:24;;;;;;;22.23;7.57;;;15.00;60.30;;;;;;4886405;29;20470;-73
2023/04/06 11:36:56;;;;;;;28.42;9.68;;;15.00;60.10;;;;;;4902574;29;20437;-74
2023/04/06 11:39:24;;;;;;;31.77;9.50;;;15.00;59.80;;;;;;4885982;29;20476;-76
2023/04/06 11:41:50;;;;;;;27.67;8.70;;;15.00;59.50;;;;;;4885905;29;20048;-73
2023/04/06 11:44:34;;;;;;;26.88;9.50;;;14.90;59.20;;;;;;4902970;29;20070;-72
2023/04/06 11:47:04;;;;;;;32.27;8.97;;;15.00;59.10;;;;;;4902509;29;20056;-72
2023/04/06 11:49:31;;;;;;;28.65;9.15;;;14.90;58.80;;;;;;4902563;29;20096;-77
2023/04/06 11:51:59;;;;;;;34.97;8.32;;;14.90;58.80;;;;;;4886311;29;20353;-73
2023/04/06 11:54:37;;;;;;;26.95;8.98;;;14.90;58.80;;;;;;4901704;29;20044;-74
2023/04/06 11:57:05;;;;;;;23.73;8.43;;;14.90;58.60;;;;;;4902192;29;20037;-76
2023/04/06 11:59:34;;;;;;;24.98;8.98;;;14.80;58.60;;;;;;4902519;29;20056;-77
2023/04/06 12:02:00;;;;;;;20.27;8.90;;;14.80;58.50;;;;;;4902235;29;20522;-77
2023/04/06 12:04:26;;;;;;;19.58;9.95;;;14.80;58.30;;;;;;4902956;29;20480;-77
2023/04/06 12:06:52;;;;;;;25.85;10.43;;;14.90;57.90;;;;;;4885749;29;20056;-81
2023/04/06 12:09:18;;;;;;;23.50;11.02;;;14.80;57.30;;;;;;4902888;29;20060;-77
2023/04/06 12:11:44;;;;;;;20.10;11.07;;;14.90;56.80;;;;;;4902074;29;20131;-78
2023/04/06 12:14:11;;;;;;;24.45;12.93;;;14.80;56.40;;;;;;4902168;29;20140;-78
2023/04/06 12:16:36;;;;;;;26.65;13.30;;;14.80;56.00;;;;;;4885280;29;20048;-77
2023/04/06 12:19:03;;;;;;;21.08;12.88;;;14.80;56.00;;;;;;4885030;29;20380;-78
2023/04/06 12:21:30;;;;;;;26.98;12.88;;;14.80;55.90;;;;;;4902016;29;20471;-73
2023/04/06 12:24:00;;;;;;;40.92;13.75;;;14.80;56.10;;;;;;4885606;29;20428;-72
2023/04/06 12:26:26;;;;;;;26.55;10.80;;;14.80;56.60;;;;;;4901137;29;20084;-74
2023/04/06 12:28:52;;;;;;;28.58;11.15;;;14.80;56.70;;;;;;4885730;29;20099;-78
2023/04/06 12:31:19;;;;;;;26.08;12.02;;;14.70;56.60;;;;;;4901468;29;20106;-78
2023/04/06 12:34:03;;;;;;;23.40;10.70;;;14.80;57.10;;;;;;4884100;29;20044;-77
2023/04/06 12:36:29;;;;;;;;;;;14.90;57.30;;;;;;4900976;29;20049;-76
2023/04/06 12:38:55;;;;;;;26.48;10.20;;;15.10;57.10;;;;;;4901979;29;19989;-80
2023/04/06 12:41:21;;;;;;;27.95;9.43;;;15.20;56.90;;;;;;4901703;29;20084;-81
2023/04/06 12:43:51;;;;;;;21.83;9.63;;;15.30;56.90;;;;;;4884728;29;20044;-76
2023/04/06 12:46:17;;;;;;;22.88;8.45;;;15.30;56.50;;;;;;4901491;29;20049;-74
2023/04/06 12:48:42;;;;;;;14.80;8.05;;;15.40;56.40;;;;;;4901348;29;20352;-76
2023/04/06 12:51:08;;;;;;;17.80;7.38;;;15.50;56.30;;;;;;4901308;29;20400;-75
2023/04/06 12:53:35;;;;;;;18.55;6.95;;;15.60;56.30;;;;;;4901383;29;20520;-83
2023/04/06 12:56:02;;;;;;;22.13;7.75;;;15.60;56.20;;;;;;4899396;29;20460;-80
2023/04/06 12:58:30;;;;;;;14.05;6.70;;;15.60;56.30;;;;;;4900071;29;20059;-77
2023/04/06 13:01:02;;;;;;;16.00;5.93;;;15.70;56.40;;;;;;4867775;29;20053;-81
2023/04/06 13:03:28;;;;;;;11.10;5.28;;;15.80;56.50;;;;;;4884302;29;20048;-78
2023/04/06 13:05:53;;;;;;;9.32;4.68;;;15.80;56.50;;;;;;4900650;29;20107;-78
2023/04/06 13:08:20;;;;;;;14.45;4.30;;;15.90;56.50;;;;;;4884444;29;20053;-74
2023/04/06 13:10:51;;;;;;;12.52;4.50;;;16.00;56.50;;;;;;4900697;29;20523;-73
2023/04/06 13:13:22;;;;;;;7.93;4.13;;;16.00;56.50;;;;;;4898761;29;20044;-72
2023/04/06 13:15:48;;;;;;;10.88;4.30;;;16.10;56.50;;;;;;4898641;29;20056;-73
2023/04/06 13:18:15;;;;;;;11.93;4.78;;;16.10;56.70;;;;;;4899705;29;20040;-72
2023/04/06 13:20:41;;;;;;;6.65;3.20;;;16.20;57.00;;;;;;4897355;29;20565;-73
2023/04/06 13:23:07;;;;;;;21.67;3.88;;;16.10;57.10;;;;;;4899698;29;20036;-73
2023/04/06 13:25:33;;;;;;;7.65;3.00;;;16.10;57.20;;;;;;4900220;29;20044;-72
2023/04/06 13:27:59;;;;;;;13.32;3.00;;;16.20;57.30;;;;;;4898516;29;20376;-72
2023/04/06 13:30:25;;;;;;;12.00;3.58;;;16.20;57.50;;;;;;4900745;29;20064;-76
2023/04/06 13:32:51;;;;;;;6.32;3.25;;;16.20;57.60;;;;;;4894663;29;20056;-73
2023/04/06 13:35:17;;;;;;;9.38;3.50;;;16.20;57.40;;;;;;4899918;29;20359;-70
2023/04/06 13:37:44;;;;;;;9.50;2.70;;;16.20;57.50;;;;;;4898968;29;20052;-75
2023/04/06 13:40:10;;;;;;;11.52;3.15;;;16.20;57.50;;;;;;4899055;29;20056;-75
2023/04/06 13:42:37;;;;;;;5.45;2.72;;;16.20;58.50;;;;;;4907451;29;20051;-74
2023/04/06 13:45:04;;;;;;;8.23;2.97;;;16.30;58.90;;;;;;4882163;29;20380;-75
2023/04/06 13:47:31;;;;;;;7.18;2.55;;;16.30;58.00;;;;;;4895143;29;20056;-76
2023/04/06 13:49:58;;;;;;;10.10;2.45;;;16.30;58.30;;;;;;4899936;29;20056;-77
2023/04/06 13:52:24;;;;;;;6.35;2.25;;;16.30;58.00;;;;;;4893890;29;20059;-77
2023/04/06 13:54:50;;;;;;;10.88;2.47;;;16.30;58.00;;;;;;4884984;29;20478;-77
2023/04/06 13:57:16;;;;;;;8.15;3.47;;;16.30;58.80;;;;;;4900486;29;20048;-76
2023/04/06 13:59:42;;;;;;;9.38;2.33;;;16.30;58.60;;;;;;4899614;29;20059;-75
2023/04/06 14:02:09;;;;;;;10.02;3.35;;;16.30;58.60;;;;;;4899956;29;20049;-73
2023/04/06 14:04:35;;;;;;;13.20;3.75;;;16.30;58.60;;;;;;4900731;29;20049;-75
2023/04/06 14:07:02;;;;;;;14.35;3.10;;;16.30;60.10;;;;;;4919546;29;20044;-78
2023/04/06 14:09:28;;;;;;;20.17;4.60;;;16.30;59.90;;;;;;4908937;29;20060;-78
2023/04/06 14:11:55;;;;;;;14.27;3.20;;;16.30;59.40;;;;;;4899037;29;20161;-78
2023/04/06 14:14:21;;;;;;;17.00;3.03;;;16.30;59.30;;;;;;4900186;29;20062;-75
2023/04/06 14:16:47;;;;;;;26.95;3.97;;;16.30;59.40;;;;;;4918871;29;20079;-79
2023/04/06 14:19:15;;;;;;;19.58;4.18;;;16.30;59.60;;;;;;4902172;29;20052;-80
2023/04/06 14:21:43;;;;;;;25.40;4.40;;;16.30;59.50;;;;;;4899821;29;20447;-72
2023/04/06 14:24:09;;;;;;;20.73;4.85;;;16.20;58.90;;;;;;4899085;29;20108;-75
2023/04/06 14:26:35;;;;;;;29.35;5.03;;;16.20;59.60;;;;;;4883236;29;20072;-76
2023/04/06 14:29:02;;;;;;;23.95;4.85;;;16.20;59.70;;;;;;4899579;29;20080;-78
2023/04/06 14:31:28;;;;;;;30.73;4.78;;;16.20;59.90;;;;;;4899524;29;20342;-78
2023/04/06 14:33:54;;;;;;;32.33;4.68;;;16.20;59.90;;;;;;4897314;29;20029;-78
2023/04/06 14:36:20;;;;;;;28.23;5.05;;;16.20;59.90;;;;;;4894265;29;20067;-77
2023/04/06 14:38:48;;;;;;;32.58;5.47;;;16.20;59.90;;;;;;4894883;29;20127;-77
2023/04/06 14:41:18;;;;;;;23.75;4.93;;;16.20;59.90;;;;;;4896163;29;20507;-77
2023/04/06 14:43:47;;;;;;;32.75;5.38;;;16.20;60.00;;;;;;4898907;29;20095;-80
2023/04/06 14:46:24;;;;;;;34.97;6.57;;;16.20;60.10;;;;;;4899879;29;20428;-81
2023/04/06 14:48:50;;;;;;;32.67;6.30;;;16.20;60.20;;;;;;4883504;29;20048;-80
2023/04/06 14:51:17;;;;;;;30.02;5.43;;;16.20;60.30;;;;;;4883325;29;20095;-80
2023/04/06 14:53:42;;;;;;;23.50;5.47;;;16.20;60.40;;;;;;4899859;29;20045;-77
2023/04/06 14:56:08;;;;;;;31.80;5.82;;;16.20;60.60;;;;;;4899861;29;20484;-78
2023/04/06 14:58:34;;;;;;;33.22;5.80;;;16.20;61.50;;;;;;4907480;29;20044;-79
2023/04/06 15:01:01;;;;;;;38.15;6.55;;;16.20;61.10;;;;;;4918333;29;20044;-79
2023/04/06 15:03:27;;;;;;;37.95;7.07;;;16.20;61.70;;;;;;4899489;29;20088;-80
2023/04/06 15:05:54;;;;;;;37.30;5.43;;;16.20;61.20;;;;;;4899391;29;20528;-78
2023/04/06 15:08:21;;;;;;;30.02;5.68;;;16.20;61.40;;;;;;4899330;29;20084;-79
2023/04/06 15:10:48;;;;;;;33.60;5.85;;;16.20;61.50;;;;;;4899070;29;20081;-77
2023/04/06 15:13:14;;;;;;;27.80;5.15;;;16.20;61.50;;;;;;4899290;29;20062;-78
2023/04/06 15:15:41;;;;;;;31.67;6.20;;;16.20;61.60;;;;;;4883092;29;20379;-79
2023/04/06 15:18:07;;;;;;;28.50;6.10;;;16.30;61.80;;;;;;4900360;29;20064;-78
2023/04/06 15:20:33;;;;;;;30.08;4.82;;;16.20;62.00;;;;;;4882690;29;20045;-77
2023/04/06 15:23:00;;;;;;;31.23;5.38;;;16.20;62.20;;;;;;4882697;29;20116;-77
2023/04/06 15:25:26;;;;;;;29.52;5.47;;;16.20;62.20;;;;;;4899679;29;20120;-79
2023/04/06 15:27:51;;;;;;;37.38;6.35;;;16.20;62.30;;;;;;4899204;29;20403;-78
2023/04/06 15:30:17;;;;;;;36.97;6.47;;;16.20;62.50;;;;;;4885308;29;20072;-78
2023/04/06 15:32:58;;;;;;;41.35;7.05;;;16.10;60.10;;;;;;4903380;29;20071;-80
2023/04/06 15:35:25;;;;;;;45.55;8.77;;;16.00;61.80;;;;;;4886005;29;20063;-81
2023/04/06 15:37:51;;;;;;;46.78;9.88;;;16.00;62.10;;;;;;4886103;29;20103;-80
2023/04/06 15:40:17;;;;;;;55.53;12.27;;;16.00;61.90;;;;;;4902203;29;20036;-79
2023/04/06 15:42:43;;;;;;;39.38;11.35;;;16.00;61.60;;;;;;4886131;29;20032;-79
2023/04/06 15:45:12;;;;;;;27.17;10.98;;;16.00;61.10;;;;;;4902454;29;20044;-79
2023/04/06 15:47:39;;;;;;;32.00;11.43;;;16.00;60.80;;;;;;4901973;29;20076;-77
2023/04/06 15:50:06;;;;;;;32.45;11.45;;;16.00;60.80;;;;;;4902793;29;20064;-79
2023/04/06 15:52:32;;;;;;;41.13;10.65;;;15.90;60.80;;;;;;4902507;29;20352;-78
2023/04/06 15:54:57;;;;;;;25.58;9.85;;;15.90;60.70;;;;;;4902554;29;20057;-80
2023/04/06 15:57:23;;;;;;;24.85;10.07;;;15.90;60.60;;;;;;4902179;29;20059;-77
2023/04/06 15:59:49;;;;;;;26.83;9.48;;;15.90;60.50;;;;;;4902412;29;20045;-79
2023/04/06 16:02:15;;;;;;;26.65;9.77;;;15.80;60.40;;;;;;4885866;29;20048;-79
2023/04/06 16:04:41;;;;;;;19.45;8.02;;;15.90;60.40;;;;;;4885489;29;20059;-81
2023/04/06 16:07:07;;;;;;;20.65;8.23;;;15.90;60.40;;;;;;4909086;29;20190;-79
2023/04/06 16:09:33;;;;;;;18.27;8.02;;;15.80;60.30;;;;;;4921187;29;20067;-77
2023/04/06 16:11:58;;;;;;;17.02;7.20;;;15.80;60.20;;;;;;4907924;29;20052;-77
2023/04/06 16:14:24;;;;;;;19.90;7.47;;;15.80;60.20;;;;;;4902223;29;20454;-79
2023/04/06 16:16:50;;;;;;;20.02;8.10;;;15.80;60.20;;;;;;4901744;29;20080;-77
2023/04/06 16:19:16;;;;;;;20.00;6.70;;;15.80;60.20;;;;;;4901756;29;20080;-78
2023/04/06 16:21:41;;;;;;;18.63;7.28;;;15.80;60.10;;;;;;4902787;29;20132;-77
2023/04/06 16:24:07;;;;;;;19.83;7.30;;;15.70;60.10;;;;;;4901624;29;20061;-79
2023/04/06 16:26:34;;;;;;;16.02;6.45;;;15.70;60.10;;;;;;4900740;29;20036;-77
2023/04/06 16:29:00;;;;;;;13.07;5.93;;;15.70;60.10;;;;;;4901633;29;20457;-77
2023/04/06 16:31:26;;;;;;;15.73;5.82;;;15.70;60.10;;;;;;4902070;29;20049;-79
2023/04/06 16:33:55;;;;;;;18.85;6.03;;;15.70;60.10;;;;;;4901527;29;20119;-78
2023/04/06 16:36:32;;;;;;;15.55;5.72;;;15.60;60.00;;;;;;4891742;29;20049;-77
2023/04/06 16:38:59;;;;;;;14.10;5.00;;;15.60;60.80;;;;;;4900918;29;20108;-78
2023/04/06 16:41:26;;;;;;;11.57;5.43;;;15.60;60.40;;;;;;4900867;29;20135;-77
2023/04/06 16:43:53;;;;;;;15.25;5.40;;;15.60;60.60;;;;;;4885277;29;20053;-77
2023/04/06 16:46:20;;;;;;;15.85;5.65;;;15.60;61.10;;;;;;4901279;29;20120;-78
2023/04/06 16:48:46;;;;;;;13.82;5.30;;;15.60;61.20;;;;;;4901310;29;20053;-78
2023/04/06 16:51:11;;;;;;;14.50;4.70;;;15.60;61.40;;;;;;4900407;29;20067;-78
2023/04/06 16:53:37;;;;;;;11.85;4.70;;;15.60;61.60;;;;;;4892837;29;20061;-78
2023/04/06 16:56:04;;;;;;;20.77;5.18;;;15.50;61.70;;;;;;4896557;29;20056;-80
2023/04/06 16:58:33;;;;;;;15.80;4.70;;;15.50;61.90;;;;;;4899090;29;20052;-78
2023/04/06 17:01:01;;;;;;;13.27;4.63;;;15.50;62.00;;;;;;4900947;29;20083;-80
2023/04/06 17:03:28;;;;;;;15.13;4.68;;;15.50;62.00;;;;;;4899608;29;20353;-78
2023/04/06 17:05:54;;;;;;;12.88;5.05;;;15.50;61.90;;;;;;4900322;29;20127;-80
2023/04/06 17:08:20;;;;;;;13.25;4.10;;;15.50;61.50;;;;;;4897384;29;20523;-77
2023/04/06 17:10:46;;;;;;;12.20;4.13;;;15.50;61.20;;;;;;4900069;29;20110;-77
2023/04/06 17:13:12;;;;;;;13.57;3.92;;;15.50;61.00;;;;;;4900452;29;20055;-80
2023/04/06 17:15:38;;;;;;;18.33;4.07;;;15.40;60.90;;;;;;4900306;29;20044;-80
2023/04/06 17:18:03;;;;;;;8.77;3.55;;;15.40;60.90;;;;;;4901369;29;20486;-78
2023/04/06 17:20:29;;;;;;;11.30;3.88;;;15.40;61.00;;;;;;4901061;29;20056;-77
2023/04/06 17:22:55;;;;;;;12.70;3.40;;;15.40;61.10;;;;;;4901305;29;20436;-77
2023/04/06 17:25:21;;;;;;;15.98;4.00;;;15.30;61.10;;;;;;4900842;29;20438;-77
2023/04/06 17:27:47;;;;;;;8.57;3.50;;;15.40;61.30;;;;;;4900739;29;20360;-75
2023/04/06 17:30:13;;;;;;;12.80;3.58;;;15.30;61.30;;;;;;4901418;29;20059;-77
2023/04/06 17:32:42;;;;;;;14.00;3.58;;;15.30;61.20;;;;;;4901051;29;20053;-77
2023/04/06 17:35:10;;;;;;;9.90;2.90;;;15.30;61.10;;;;;;4900031;29;20464;-76
2023/04/06 17:37:36;;;;;;;10.00;3.00;;;15.30;61.10;;;;;;4899337;29;20488;-78
2023/04/06 17:40:03;;;;;;;7.32;3.10;;;15.30;61.10;;;;;;4900109;29;20040;-76
2023/04/06 17:42:29;;;;;;;10.50;2.58;;;15.30;61.00;;;;;;4900373;29;20040;-76
2023/04/06 17:44:58;;;;;;;11.82;3.15;;;15.30;61.00;;;;;;4883058;29;20384;-77
2023/04/06 17:47:30;;;;;;;5.50;2.78;;;15.30;61.00;;;;;;4897795;29;20075;-76
2023/04/06 17:49:57;;;;;;;8.43;2.90;;;15.20;60.90;;;;;;4900118;29;20414;-73
2023/04/06 17:52:25;;;;;;;6.45;2.30;;;15.20;60.90;;;;;;4880528;29;20049;-75
2023/04/06 17:54:51;;;;;;;5.65;2.60;;;15.20;60.80;;;;;;4899611;29;20052;-75
2023/04/06 17:57:17;;;;;;;7.63;2.58;;;15.20;60.80;;;;;;4899800;29;20053;-74
2023/04/06 17:59:42;;;;;;;6.70;2.67;;;15.20;60.80;;;;;;4899822;29;20128;-73
2023/04/06 18:02:08;;;;;;;8.98;3.47;;;15.20;60.80;;;;;;4899644;29;20394;-74
2023/04/06 18:04:35;;;;;;;7.32;2.13;;;15.20;60.70;;;;;;4899752;29;20048;-74
2023/04/06 18:07:01;;;;;;;5.07;2.03;;;15.20;60.70;;;;;;4896246;29;20063;-75
2023/04/06 18:09:30;;;;;;;6.07;2.33;;;15.20;60.70;;;;;;4896890;29;20053;-75
2023/04/06 18:11:56;;;;;;;10.70;2.95;;;15.10;60.60;;;;;;4898778;29;20056;-74
2023/04/06 18:14:22;;;;;;;5.03;2.45;;;15.20;60.70;;;;;;4880438;29;20064;-74
2023/04/06 18:16:48;;;;;;;3.95;2.25;;;15.20;60.70;;;;;;4899335;29;20372;-74
2023/04/06 18:19:14;;;;;;;3.55;1.98;;;15.10;60.70;;;;;;4882092;29;20076;-78
2023/04/06 18:21:40;;;;;;;6.80;3.63;;;15.10;60.70;;;;;;4899480;29;20041;-78
2023/04/06 18:24:06;;;;;;;5.85;3.50;;;15.10;60.60;;;;;;4899281;29;20115;-78
2023/04/06 18:26:33;;;;;;;7.88;4.07;;;15.10;60.50;;;;;;4882782;29;20193;-78
2023/04/06 18:28:58;;;;;;;5.32;3.85;;;15.00;60.30;;;;;;4899368;29;20076;-76
2023/04/06 18:31:24;;;;;;;5.68;4.00;;;15.00;60.20;;;;;;4899497;29;20489;-75
2023/04/06 18:33:50;;;;;;;6.75;4.10;;;15.00;60.10;;;;;;4899448;29;20056;-76
2023/04/06 18:36:16;;;;;;;6.53;4.05;;;15.00;60.10;;;;;;4899132;29;20056;-77
2023/04/06 18:38:44;;;;;;;5.70;4.45;;;15.00;60.10;;;;;;4899187;29;20389;-76
2023/04/06 18:41:09;;;;;;;5.43;4.38;;;15.00;60.00;;;;;;4899152;29;20037;-77
2023/04/06 18:43:39;;;;;;;5.88;4.35;;;14.90;59.90;;;;;;4882087;29;20378;-78
2023/04/06 18:46:12;;;;;;;6.18;4.63;;;14.90;59.90;;;;;;4880624;29;20136;-79